Terminal Aerodrome Forecast
Issued by NWS Melbourne, FL

Home | Current Version | Previous Version | Text Only | Print | Product List | Glossary On
Versions: 1 2 3 4 5 6 7 8 9 10 11 12 13
127
FTUS42 KMLB 270539
TAFVRB
TAF
KVRB 270539Z 2706/2806 10005KT P6SM SKC
     FM271500 07010KT P6SM SCT040
     FM280200 09005KT P6SM FEW030=

USA.gov is the U.S. government's official web portal to all federal, state and local government web resources and services.